LBX weather

Lubang Airport
Mindoro Occidental Province, Philippines

Public forecast

Using degrees Celsius for public forecast. Weather courtesy of forecast.io.

METAR (pilot weather report)

Closest report is Subic Bay International Airport, 57.2 nm (105.9 km) N. Retrieved 2019/06/20 22:00 UTC (51 minutes ago):

RPLB 202200Z 10004KT 9999 FEW020 26/25 Q1009 NOSIG RMK A2980

TAF (pilot weather forecast)

Closest forecast is Subic Bay International Airport, 57.2 nm (105.9 km) N. Retrieved 2019/06/20 18:00 UTC (5 hours ago):

TAF RPLB 201700Z 2018/2118 11004KT 999 FEW020 SCT300 TX32/2106Z TN26/2022Z TEMPO 2018/2024 10006KT FEW018CB FEW020 SCT080